Time;durP1;ratioP1;P1;durP2;ratioP2;P2;SDS_P1;SDS_P2;PMS_P1;PMS_P2;Temp;Humidity;BMP_temperature;BMP_pressure;BME280_temperature;BME280_humidity;BME280_pressure;Samples;Min_cycle;Max_cycle;Signal;HPM_P1;HPM_P2
2023/07/23 00:01:24;;;;;;;9.05;4.38;;;;;;;;;;5035576;28;20033;-80
2023/07/23 00:03:50;;;;;;;8.93;4.20;;;;;;;;;;5035356;28;20032;-80
2023/07/23 00:06:16;;;;;;;7.47;4.72;;;;;;;;;;5017346;28;20095;-80
2023/07/23 00:08:42;;;;;;;7.43;4.70;;;;;;;;;;5034716;28;20065;-80
2023/07/23 00:11:07;;;;;;;9.68;5.63;;;;;;;;;;5017539;28;20059;-81
2023/07/23 00:13:33;;;;;;;10.38;5.53;;;;;;;;;;5017426;28;20442;-80
2023/07/23 00:15:58;;;;;;;10.20;5.38;;;;;;;;;;5034936;28;20041;-79
2023/07/23 00:18:24;;;;;;;12.35;5.43;;;;;;;;;;5035278;28;20124;-79
2023/07/23 00:20:49;;;;;;;8.77;4.97;;;;;;;;;;5033280;28;20036;-80
2023/07/23 00:23:14;;;;;;;8.10;5.13;;;;;;;;;;5017612;28;20044;-79
2023/07/23 00:25:40;;;;;;;10.13;5.20;;;;;;;;;;5035015;28;20034;-80
2023/07/23 00:28:06;;;;;;;11.27;5.38;;;;;;;;;;5035106;28;20030;-79
2023/07/23 00:30:32;;;;;;;11.02;5.30;;;;;;;;;;5035182;28;20037;-79
2023/07/23 00:32:57;;;;;;;19.27;5.43;;;;;;;;;;5034891;28;20049;-81
2023/07/23 00:35:23;;;;;;;10.35;5.13;;;;;;;;;;5034873;28;20373;-81
2023/07/23 00:37:48;;;;;;;9.60;5.25;;;;;;;;;;5035095;28;20030;-80
2023/07/23 00:40:14;;;;;;;10.30;5.63;;;;;;;;;;5017884;28;20025;-80
2023/07/23 00:42:39;;;;;;;8.82;5.40;;;;;;;;;;5017266;28;20025;-80
2023/07/23 00:45:05;;;;;;;12.15;5.45;;;;;;;;;;5035047;28;20032;-80
2023/07/23 00:47:31;;;;;;;12.25;5.90;;;;;;;;;;5016953;28;20056;-81
2023/07/23 00:49:56;;;;;;;13.15;5.90;;;;;;;;;;5016975;28;20052;-81
2023/07/23 00:52:22;;;;;;;11.02;6.18;;;;;;;;;;5017019;28;20026;-81
2023/07/23 00:54:47;;;;;;;10.18;4.95;;;;;;;;;;5017146;28;20037;-80
2023/07/23 00:57:13;;;;;;;8.98;4.97;;;;;;;;;;5000723;28;20041;-81
2023/07/23 00:59:38;;;;;;;8.38;5.13;;;;;;;;;;5016953;28;20021;-81
2023/07/23 01:02:04;;;;;;;12.88;4.95;;;;;;;;;;5033526;28;20400;-80
2023/07/23 01:04:29;;;;;;;8.82;5.53;;;;;;;;;;5016646;28;20124;-79
2023/07/23 01:06:55;;;;;;;7.93;5.55;;;;;;;;;;5013412;28;20124;-80
2023/07/23 01:09:21;;;;;;;11.05;5.78;;;;;;;;;;4981046;28;20438;-80
2023/07/23 01:11:46;;;;;;;13.38;6.00;;;;;;;;;;5013648;28;20026;-81
2023/07/23 01:14:11;;;;;;;11.70;6.32;;;;;;;;;;4997042;28;20465;-81
2023/07/23 01:16:37;;;;;;;13.57;5.90;;;;;;;;;;4997083;28;20036;-80
2023/07/23 01:19:03;;;;;;;14.05;6.85;;;;;;;;;;5013255;28;20040;-80
2023/07/23 01:21:28;;;;;;;11.45;6.30;;;;;;;;;;4996985;28;20028;-80
2023/07/23 01:23:54;;;;;;;14.55;6.45;;;;;;;;;;5014442;28;20489;-80
2023/07/23 01:26:20;;;;;;;14.30;6.43;;;;;;;;;;5013365;28;20026;-80
2023/07/23 01:28:45;;;;;;;11.48;5.90;;;;;;;;;;5014394;28;20033;-80
2023/07/23 01:31:12;;;;;;;9.60;5.93;;;;;;;;;;5014709;28;20030;-80
2023/07/23 01:33:39;;;;;;;14.13;6.13;;;;;;;;;;4996959;28;20022;-80
2023/07/23 01:36:05;;;;;;;11.43;6.78;;;;;;;;;;5012933;28;20079;-80
2023/07/23 01:38:30;;;;;;;11.40;6.53;;;;;;;;;;4996792;28;20060;-80
2023/07/23 01:40:57;;;;;;;11.48;6.90;;;;;;;;;;4996706;28;20026;-80
2023/07/23 01:43:23;;;;;;;15.68;7.35;;;;;;;;;;5014296;28;20449;-80
2023/07/23 01:45:48;;;;;;;13.68;6.70;;;;;;;;;;5012879;28;20100;-81
2023/07/23 01:48:15;;;;;;;19.73;7.10;;;;;;;;;;5013873;28;20064;-81
2023/07/23 01:50:41;;;;;;;14.27;6.72;;;;;;;;;;4996576;28;20030;-80
2023/07/23 01:53:06;;;;;;;16.13;7.25;;;;;;;;;;5014642;28;20041;-81
2023/07/23 01:55:32;;;;;;;14.13;6.85;;;;;;;;;;5014047;28;20034;-80
2023/07/23 01:57:58;;;;;;;11.35;7.50;;;;;;;;;;5014327;28;20026;-80
2023/07/23 02:00:24;;;;;;;13.85;7.18;;;;;;;;;;5014011;28;20415;-81
2023/07/23 02:02:49;;;;;;;13.73;7.30;;;;;;;;;;5013793;28;20120;-80
2023/07/23 02:05:15;;;;;;;14.20;7.30;;;;;;;;;;4996427;28;20457;-80
2023/07/23 02:07:40;;;;;;;15.10;7.65;;;;;;;;;;4996613;28;20036;-81
2023/07/23 02:10:07;;;;;;;14.80;6.68;;;;;;;;;;5014007;28;20061;-80
2023/07/23 02:12:35;;;;;;;19.77;7.70;;;;;;;;;;5013998;28;20034;-81
2023/07/23 02:15:01;;;;;;;22.80;7.38;;;;;;;;;;4996380;28;20445;-80
2023/07/23 02:17:26;;;;;;;12.88;6.68;;;;;;;;;;5012388;28;20075;-80
2023/07/23 02:19:52;;;;;;;17.02;6.88;;;;;;;;;;5013836;28;20084;-81
2023/07/23 02:22:17;;;;;;;11.55;7.03;;;;;;;;;;4980099;28;20457;-81
2023/07/23 02:24:43;;;;;;;18.95;6.28;;;;;;;;;;4996115;28;20033;-81
2023/07/23 02:27:08;;;;;;;17.02;6.45;;;;;;;;;;4996406;28;20046;-81
2023/07/23 02:29:34;;;;;;;17.77;6.18;;;;;;;;;;5013748;28;20026;-80
2023/07/23 02:31:59;;;;;;;18.30;6.10;;;;;;;;;;5013613;28;20032;-81
2023/07/23 02:34:24;;;;;;;12.90;6.07;;;;;;;;;;5012482;28;20022;-81
2023/07/23 02:36:50;;;;;;;10.10;6.35;;;;;;;;;;5014043;28;20125;-81
2023/07/23 02:39:15;;;;;;;8.82;5.93;;;;;;;;;;5012551;28;20101;-81
2023/07/23 02:41:41;;;;;;;18.13;6.05;;;;;;;;;;5013594;28;20033;-80
2023/07/23 02:44:06;;;;;;;9.48;5.72;;;;;;;;;;5016915;28;20030;-81
2023/07/23 02:46:32;;;;;;;13.80;5.80;;;;;;;;;;5017197;28;20033;-81
2023/07/23 02:48:57;;;;;;;13.27;5.95;;;;;;;;;;5017053;28;20030;-81
2023/07/23 02:51:23;;;;;;;9.82;5.25;;;;;;;;;;5017001;28;20113;-81
2023/07/23 02:53:49;;;;;;;8.25;5.38;;;;;;;;;;5016933;28;20116;-81
2023/07/23 02:56:14;;;;;;;19.88;5.97;;;;;;;;;;5015657;28;20030;-81
2023/07/23 02:58:40;;;;;;;8.68;5.30;;;;;;;;;;5015209;28;20045;-80
2023/07/23 03:01:06;;;;;;;11.00;5.63;;;;;;;;;;5015368;28;20030;-80
2023/07/23 03:03:31;;;;;;;14.98;6.03;;;;;;;;;;5015415;28;20322;-79
2023/07/23 03:05:56;;;;;;;11.27;5.70;;;;;;;;;;5015353;28;20046;-80
2023/07/23 03:08:22;;;;;;;11.23;5.95;;;;;;;;;;5016849;28;20099;-80
2023/07/23 03:10:47;;;;;;;9.02;5.25;;;;;;;;;;5015409;28;20028;-79
2023/07/23 03:13:13;;;;;;;14.95;5.80;;;;;;;;;;5016786;28;20321;-80
2023/07/23 03:15:38;;;;;;;9.93;5.55;;;;;;;;;;5014864;28;20519;-80
2023/07/23 03:18:04;;;;;;;13.10;5.43;;;;;;;;;;4998803;28;20026;-80
2023/07/23 03:20:29;;;;;;;15.00;5.20;;;;;;;;;;5016421;28;20089;-80
2023/07/23 03:22:55;;;;;;;9.15;4.75;;;;;;;;;;5015251;28;20057;-80
2023/07/23 03:25:20;;;;;;;8.32;4.70;;;;;;;;;;5016506;28;20033;-79
2023/07/23 03:27:46;;;;;;;8.00;4.13;;;;;;;;;;5015024;28;20030;-79
2023/07/23 03:30:11;;;;;;;10.00;3.53;;;;;;;;;;5014626;28;20038;-80
2023/07/23 03:32:37;;;;;;;5.80;3.90;;;;;;;;;;5015151;28;20026;-80
2023/07/23 03:35:02;;;;;;;9.57;3.78;;;;;;;;;;5015982;28;20041;-80
2023/07/23 03:37:28;;;;;;;5.13;3.80;;;;;;;;;;5016211;28;20091;-80
2023/07/23 03:39:53;;;;;;;9.05;3.78;;;;;;;;;;5016327;28;20084;-80
2023/07/23 03:42:19;;;;;;;6.75;3.90;;;;;;;;;;5016221;28;20030;-80
2023/07/23 03:44:44;;;;;;;8.82;4.05;;;;;;;;;;5014556;28;20037;-78
2023/07/23 03:47:16;;;;;;;7.40;4.00;;;;;;;;;;5016001;28;20128;-78
2023/07/23 03:49:42;;;;;;;4.82;3.60;;;;;;;;;;5014762;28;20026;-79
2023/07/23 03:52:08;;;;;;;9.60;3.60;;;;;;;;;;4982347;28;20094;-79
2023/07/23 03:54:33;;;;;;;6.90;4.03;;;;;;;;;;4997179;28;20037;-80
2023/07/23 03:56:59;;;;;;;13.55;3.90;;;;;;;;;;4998243;28;20029;-79
2023/07/23 03:59:37;;;;;;;4.82;3.88;;;;;;;;;;5015704;28;20187;-80
2023/07/23 04:02:02;;;;;;;6.10;3.67;;;;;;;;;;5015010;28;20116;-80
2023/07/23 04:04:28;;;;;;;5.65;3.13;;;;;;;;;;5014930;28;20477;-80
2023/07/23 04:06:53;;;;;;;7.28;3.03;;;;;;;;;;5032911;28;20512;-79
2023/07/23 04:09:19;;;;;;;5.03;3.28;;;;;;;;;;5035477;28;20033;-80
2023/07/23 04:11:44;;;;;;;3.75;3.40;;;;;;;;;;5033949;28;20041;-80
2023/07/23 04:14:10;;;;;;;7.60;3.40;;;;;;;;;;5035028;28;20085;-79
2023/07/23 04:16:35;;;;;;;5.55;3.38;;;;;;;;;;5035157;28;20099;-80
2023/07/23 04:19:01;;;;;;;7.40;3.33;;;;;;;;;;5034983;28;20032;-80
2023/07/23 04:21:26;;;;;;;6.60;3.70;;;;;;;;;;5034986;28;20091;-80
2023/07/23 04:23:52;;;;;;;4.45;3.42;;;;;;;;;;5017453;28;20103;-80
2023/07/23 04:26:18;;;;;;;5.50;3.22;;;;;;;;;;5034610;28;20053;-80
2023/07/23 04:28:44;;;;;;;4.00;3.60;;;;;;;;;;5017080;28;20029;-80
2023/07/23 04:31:10;;;;;;;6.18;3.40;;;;;;;;;;5017130;28;20034;-80
2023/07/23 04:33:35;;;;;;;7.90;4.25;;;;;;;;;;5017215;28;20029;-81
2023/07/23 04:36:02;;;;;;;7.25;4.40;;;;;;;;;;5033713;28;20031;-80
2023/07/23 04:38:28;;;;;;;6.65;4.15;;;;;;;;;;5038513;28;20508;-80
2023/07/23 04:40:53;;;;;;;5.47;4.35;;;;;;;;;;5007961;28;20107;-81
2023/07/23 04:43:18;;;;;;;8.13;4.22;;;;;;;;;;5049661;28;20490;-80
2023/07/23 04:45:44;;;;;;;8.05;3.90;;;;;;;;;;5012222;28;20338;-80
2023/07/23 04:48:14;;;;;;;7.30;3.75;;;;;;;;;;5042232;28;20030;-80
2023/07/23 04:50:39;;;;;;;4.80;3.90;;;;;;;;;;5034714;28;20140;-80
2023/07/23 04:53:05;;;;;;;7.38;4.25;;;;;;;;;;5033224;28;20453;-80
2023/07/23 04:55:30;;;;;;;4.50;3.80;;;;;;;;;;5034382;28;20106;-80
2023/07/23 04:57:55;;;;;;;6.07;3.90;;;;;;;;;;5016724;28;20030;-81
2023/07/23 05:00:22;;;;;;;5.00;3.95;;;;;;;;;;5034233;28;20518;-81
2023/07/23 05:02:47;;;;;;;4.65;3.50;;;;;;;;;;5016987;28;20052;-81
2023/07/23 05:05:13;;;;;;;4.65;4.10;;;;;;;;;;5033808;28;20480;-81
2023/07/23 05:07:38;;;;;;;6.88;3.90;;;;;;;;;;5000101;28;20444;-81
2023/07/23 05:10:04;;;;;;;9.68;3.80;;;;;;;;;;5016467;28;20021;-80
2023/07/23 05:12:30;;;;;;;6.18;3.78;;;;;;;;;;5032873;28;20032;-80
2023/07/23 05:15:10;;;;;;;6.78;4.15;;;;;;;;;;5016507;28;20028;-80
2023/07/23 05:17:36;;;;;;;5.25;4.40;;;;;;;;;;5016669;28;20445;-80
2023/07/23 05:20:02;;;;;;;7.00;4.90;;;;;;;;;;5016488;28;20036;-80
2023/07/23 05:22:27;;;;;;;10.63;4.70;;;;;;;;;;5034064;28;20530;-80
2023/07/23 05:24:52;;;;;;;8.25;4.30;;;;;;;;;;5033979;28;20181;-81
2023/07/23 05:27:18;;;;;;;7.00;4.18;;;;;;;;;;5033884;28;20033;-79
2023/07/23 05:29:43;;;;;;;12.05;4.18;;;;;;;;;;5033497;28;20034;-80
2023/07/23 05:32:09;;;;;;;5.80;3.78;;;;;;;;;;5016496;28;20032;-81
2023/07/23 05:34:34;;;;;;;7.80;3.90;;;;;;;;;;5016356;28;20033;-80
2023/07/23 05:36:59;;;;;;;6.57;3.85;;;;;;;;;;5032694;28;20037;-80
2023/07/23 05:39:25;;;;;;;5.72;4.05;;;;;;;;;;5033896;28;20022;-80
2023/07/23 05:41:50;;;;;;;5.00;4.50;;;;;;;;;;5016377;28;20024;-80
2023/07/23 05:44:17;;;;;;;7.47;4.45;;;;;;;;;;5016263;28;20023;-81
2023/07/23 05:46:43;;;;;;;7.18;4.95;;;;;;;;;;5032707;28;20033;-80
2023/07/23 05:49:08;;;;;;;9.88;5.20;;;;;;;;;;5033816;28;20029;-81
2023/07/23 05:51:33;;;;;;;8.80;4.78;;;;;;;;;;5033798;28;20052;-81
2023/07/23 05:53:59;;;;;;;5.90;4.90;;;;;;;;;;4999761;28;20364;-79
2023/07/23 05:56:24;;;;;;;7.40;5.05;;;;;;;;;;5033959;28;20034;-81
2023/07/23 05:58:49;;;;;;;9.35;5.38;;;;;;;;;;5032668;28;20025;-82
2023/07/23 06:01:15;;;;;;;8.07;5.25;;;;;;;;;;5033746;28;20029;-80
2023/07/23 06:03:40;;;;;;;8.93;5.05;;;;;;;;;;5033909;28;20792;-81
2023/07/23 06:06:06;;;;;;;9.50;5.65;;;;;;;;;;5033671;28;20084;-81
2023/07/23 06:08:31;;;;;;;12.68;6.05;;;;;;;;;;5015698;28;20373;-81
2023/07/23 06:10:56;;;;;;;11.95;5.72;;;;;;;;;;5033690;28;20076;-82
2023/07/23 06:13:22;;;;;;;7.45;5.80;;;;;;;;;;5033786;28;20026;-81
2023/07/23 06:15:47;;;;;;;6.78;5.60;;;;;;;;;;5033534;28;20033;-81
2023/07/23 06:18:13;;;;;;;5.85;5.25;;;;;;;;;;5017934;28;20124;-81
2023/07/23 06:20:38;;;;;;;9.88;6.00;;;;;;;;;;5037496;28;20116;-81
2023/07/23 06:23:03;;;;;;;10.15;5.97;;;;;;;;;;5037197;28;20025;-81
2023/07/23 06:25:29;;;;;;;12.20;6.30;;;;;;;;;;5036555;28;20128;-81
2023/07/23 06:27:54;;;;;;;9.77;6.32;;;;;;;;;;5019863;28;20022;-81
2023/07/23 06:30:20;;;;;;;7.78;6.00;;;;;;;;;;5019807;28;20431;-81
2023/07/23 06:32:45;;;;;;;8.55;7.13;;;;;;;;;;5037332;28;20021;-81
2023/07/23 06:35:11;;;;;;;11.85;6.70;;;;;;;;;;5019439;28;20630;-81
2023/07/23 06:37:38;;;;;;;11.27;6.70;;;;;;;;;;5037030;28;20027;-81
2023/07/23 06:40:05;;;;;;;14.98;8.10;;;;;;;;;;5020203;28;20033;-81
2023/07/23 06:42:30;;;;;;;10.93;8.18;;;;;;;;;;5037342;28;20025;-81
2023/07/23 06:44:56;;;;;;;14.10;7.78;;;;;;;;;;5037120;28;20175;-81
2023/07/23 06:47:21;;;;;;;11.00;8.40;;;;;;;;;;5019760;28;20029;-82
2023/07/23 06:49:46;;;;;;;13.98;8.68;;;;;;;;;;5019522;28;20032;-82
2023/07/23 06:52:12;;;;;;;13.85;8.52;;;;;;;;;;5036607;28;20029;-82
2023/07/23 06:54:40;;;;;;;12.80;8.88;;;;;;;;;;5036783;28;20029;-82
2023/07/23 06:57:06;;;;;;;;;;;;;;;;;;5037124;28;20192;-82
2023/07/23 06:59:32;;;;;;;12.73;8.85;;;;;;;;;;5036723;28;20360;-81
2023/07/23 07:01:57;;;;;;;13.40;9.65;;;;;;;;;;5036629;28;20025;-81
2023/07/23 07:04:22;;;;;;;14.50;9.68;;;;;;;;;;5019106;28;20037;-81
2023/07/23 07:06:48;;;;;;;11.57;9.95;;;;;;;;;;5036200;28;20046;-81
2023/07/23 07:09:13;;;;;;;13.77;9.65;;;;;;;;;;5036659;28;20026;-82
2023/07/23 07:11:39;;;;;;;12.00;9.23;;;;;;;;;;5035330;28;20040;-81
2023/07/23 07:14:04;;;;;;;11.68;10.35;;;;;;;;;;5036505;28;20108;-82
2023/07/23 07:16:30;;;;;;;13.07;10.32;;;;;;;;;;5035229;28;20397;-81
2023/07/23 07:18:55;;;;;;;11.50;10.30;;;;;;;;;;5018987;28;20460;-81
2023/07/23 07:21:21;;;;;;;16.00;10.45;;;;;;;;;;5036023;28;20033;-81
2023/07/23 07:23:46;;;;;;;13.82;10.82;;;;;;;;;;5018699;28;20044;-82
2023/07/23 07:26:12;;;;;;;15.02;11.60;;;;;;;;;;5018607;28;20431;-81
2023/07/23 07:28:37;;;;;;;15.68;11.30;;;;;;;;;;5036430;28;20029;-81
2023/07/23 07:31:03;;;;;;;14.00;11.80;;;;;;;;;;5036258;28;20032;-82
2023/07/23 07:33:29;;;;;;;17.83;12.10;;;;;;;;;;5034923;28;20092;-81
2023/07/23 07:35:55;;;;;;;15.07;12.05;;;;;;;;;;5018077;28;20025;-81
2023/07/23 07:38:20;;;;;;;18.52;12.98;;;;;;;;;;5002471;28;20472;-82
2023/07/23 07:40:48;;;;;;;16.15;12.90;;;;;;;;;;5018479;28;20060;-81
2023/07/23 07:43:13;;;;;;;16.67;13.05;;;;;;;;;;5018851;28;20390;-81
2023/07/23 07:45:39;;;;;;;16.75;11.80;;;;;;;;;;5002084;28;20124;-82
2023/07/23 07:48:04;;;;;;;15.80;12.85;;;;;;;;;;5017787;28;20107;-81
2023/07/23 07:50:30;;;;;;;20.65;13.98;;;;;;;;;;5034388;28;20064;-81
2023/07/23 07:52:55;;;;;;;16.15;12.95;;;;;;;;;;5035782;28;20031;-81
2023/07/23 07:55:21;;;;;;;15.10;12.98;;;;;;;;;;5036014;28;20021;-82
2023/07/23 07:57:46;;;;;;;16.13;12.52;;;;;;;;;;5035631;28;20033;-82
2023/07/23 08:00:12;;;;;;;17.15;12.65;;;;;;;;;;5035486;28;20029;-82
2023/07/23 08:02:39;;;;;;;16.35;12.82;;;;;;;;;;5035790;28;20124;-81
2023/07/23 08:05:05;;;;;;;16.92;13.40;;;;;;;;;;5035163;28;20399;-81
2023/07/23 08:07:31;;;;;;;17.08;13.38;;;;;;;;;;5035743;28;20044;-81
2023/07/23 08:09:57;;;;;;;16.67;13.02;;;;;;;;;;5017920;28;20037;-82
2023/07/23 08:12:23;;;;;;;16.08;13.45;;;;;;;;;;5017832;28;20017;-82
2023/07/23 08:14:48;;;;;;;19.42;14.00;;;;;;;;;;5017694;28;20083;-82
2023/07/23 08:17:14;;;;;;;15.75;13.80;;;;;;;;;;5017641;28;20022;-82
2023/07/23 08:19:39;;;;;;;17.15;13.65;;;;;;;;;;5033931;28;20037;-81
2023/07/23 08:22:06;;;;;;;17.42;13.32;;;;;;;;;;5035195;28;20025;-81
2023/07/23 08:24:31;;;;;;;15.20;11.70;;;;;;;;;;5035121;28;20674;-81
2023/07/23 08:26:57;;;;;;;18.02;12.43;;;;;;;;;;5035399;28;20037;-79
2023/07/23 08:29:23;;;;;;;15.40;11.23;;;;;;;;;;5017420;28;20116;-81
2023/07/23 08:31:48;;;;;;;13.20;10.27;;;;;;;;;;5017402;28;20068;-80
2023/07/23 08:34:14;;;;;;;14.18;10.68;;;;;;;;;;5016972;28;20033;-81
2023/07/23 08:36:39;;;;;;;12.20;9.77;;;;;;;;;;5000933;28;20033;-80
2023/07/23 08:39:05;;;;;;;12.60;10.90;;;;;;;;;;5033594;28;20026;-79
2023/07/23 08:41:37;;;;;;;11.25;10.02;;;;;;;;;;5034243;28;20128;-81
2023/07/23 08:44:05;;;;;;;11.07;9.90;;;;;;;;;;5034958;28;20036;-80
2023/07/23 08:46:31;;;;;;;12.45;10.52;;;;;;;;;;5035032;28;20433;-81
2023/07/23 08:49:03;;;;;;;15.52;10.75;;;;;;;;;;5034662;28;20036;-81
2023/07/23 08:51:33;;;;;;;12.13;10.45;;;;;;;;;;5016798;28;20042;-82
2023/07/23 08:53:59;;;;;;;12.48;10.00;;;;;;;;;;5034836;28;20052;-81
2023/07/23 08:56:24;;;;;;;14.10;10.50;;;;;;;;;;5016990;28;20476;-81
2023/07/23 08:58:50;;;;;;;13.50;10.75;;;;;;;;;;5034564;28;20411;-82
2023/07/23 09:01:15;;;;;;;12.02;10.18;;;;;;;;;;5016806;28;20436;-81
2023/07/23 09:03:41;;;;;;;12.63;10.15;;;;;;;;;;5016193;28;20033;-81
2023/07/23 09:06:06;;;;;;;13.27;10.40;;;;;;;;;;5016494;28;20050;-81
2023/07/23 09:08:33;;;;;;;13.35;10.18;;;;;;;;;;5034415;28;20095;-81
2023/07/23 09:10:58;;;;;;;13.32;10.07;;;;;;;;;;5016925;28;20033;-82
2023/07/23 09:13:31;;;;;;;11.55;9.18;;;;;;;;;;5034439;28;20025;-81
2023/07/23 09:15:57;;;;;;;13.73;9.90;;;;;;;;;;5033506;28;20128;-81
2023/07/23 09:18:22;;;;;;;14.60;10.30;;;;;;;;;;5016324;28;20121;-81
2023/07/23 09:20:48;;;;;;;11.25;9.48;;;;;;;;;;5016435;28;20437;-81
2023/07/23 09:23:14;;;;;;;13.80;10.32;;;;;;;;;;5034188;28;20035;-82
2023/07/23 09:25:41;;;;;;;14.45;9.63;;;;;;;;;;5032877;28;20088;-81
2023/07/23 09:28:07;;;;;;;12.07;9.30;;;;;;;;;;5034026;28;20067;-81
2023/07/23 09:30:32;;;;;;;14.15;9.95;;;;;;;;;;5016458;28;20045;-81
2023/07/23 09:32:58;;;;;;;11.75;9.48;;;;;;;;;;5033682;28;20063;-81
2023/07/23 09:35:24;;;;;;;12.20;8.98;;;;;;;;;;5034068;28;20029;-81
2023/07/23 09:37:59;;;;;;;11.15;9.07;;;;;;;;;;5033984;28;20026;-81
2023/07/23 09:40:38;;;;;;;11.05;7.18;;;;;;;;;;5033107;28;20026;-80
2023/07/23 09:43:04;;;;;;;8.65;7.07;;;;;;;;;;5032709;28;20455;-80
2023/07/23 09:45:36;;;;;;;7.85;6.72;;;;;;;;;;5033721;28;20072;-81
2023/07/23 09:48:02;;;;;;;9.18;7.30;;;;;;;;;;5016177;28;20502;-80
2023/07/23 09:50:28;;;;;;;8.15;6.82;;;;;;;;;;5034124;28;20120;-81
2023/07/23 09:52:53;;;;;;;10.00;6.80;;;;;;;;;;5018327;28;20026;-81
2023/07/23 09:55:22;;;;;;;8.63;6.70;;;;;;;;;;5038197;28;20451;-81
2023/07/23 09:57:51;;;;;;;7.20;6.43;;;;;;;;;;5020398;28;20030;-81
2023/07/23 10:00:17;;;;;;;10.02;6.88;;;;;;;;;;5019838;28;20044;-81
2023/07/23 10:02:43;;;;;;;11.20;6.82;;;;;;;;;;5038194;28;20384;-81
2023/07/23 10:05:10;;;;;;;7.90;7.10;;;;;;;;;;5036486;28;20045;-80
2023/07/23 10:07:37;;;;;;;10.82;6.80;;;;;;;;;;5038213;28;20043;-81
2023/07/23 10:10:03;;;;;;;8.05;6.90;;;;;;;;;;5020457;28;20045;-81
2023/07/23 10:12:28;;;;;;;8.35;7.43;;;;;;;;;;5019728;28;20033;-81
2023/07/23 10:14:53;;;;;;;9.27;7.90;;;;;;;;;;5020163;28;20041;-81
2023/07/23 10:17:19;;;;;;;11.90;7.82;;;;;;;;;;5037615;28;20044;-81
2023/07/23 10:19:44;;;;;;;8.98;7.60;;;;;;;;;;5036401;28;20033;-82
2023/07/23 10:22:10;;;;;;;9.60;8.15;;;;;;;;;;5003478;28;20033;-79
2023/07/23 10:24:39;;;;;;;11.05;8.65;;;;;;;;;;5020141;28;20049;-81
2023/07/23 10:27:16;;;;;;;11.73;8.95;;;;;;;;;;5019699;28;20041;-80
2023/07/23 10:30:17;;;;;;;10.00;8.25;;;;;;;;;;5019517;28;20033;-81
2023/07/23 10:32:42;;;;;;;13.05;9.15;;;;;;;;;;5023750;28;20131;-81
2023/07/23 10:35:11;;;;;;;10.32;9.15;;;;;;;;;;5003239;28;20065;-81
2023/07/23 10:37:36;;;;;;;11.43;8.88;;;;;;;;;;5035936;28;20029;-81
2023/07/23 10:40:03;;;;;;;10.60;9.50;;;;;;;;;;5019611;28;20334;-80
2023/07/23 10:42:34;;;;;;;11.40;8.98;;;;;;;;;;5037352;28;20048;-81
2023/07/23 10:45:21;;;;;;;11.75;8.93;;;;;;;;;;5036844;28;20026;-81
2023/07/23 10:47:50;;;;;;;11.88;9.30;;;;;;;;;;5037616;28;20457;-82
2023/07/23 10:50:16;;;;;;;11.80;9.77;;;;;;;;;;5019188;28;20029;-81
2023/07/23 10:52:49;;;;;;;12.07;8.75;;;;;;;;;;5036011;28;20025;-80
2023/07/23 10:55:40;;;;;;;12.85;9.70;;;;;;;;;;5019864;28;20033;-81
2023/07/23 10:58:12;;;;;;;14.05;9.45;;;;;;;;;;5036516;28;20091;-82
2023/07/23 11:00:48;;;;;;;11.55;9.73;;;;;;;;;;5019199;28;20132;-81
2023/07/23 11:03:16;;;;;;;13.15;9.75;;;;;;;;;;5002098;28;20428;-80
2023/07/23 11:05:42;;;;;;;11.55;9.23;;;;;;;;;;5018786;28;20037;-81
2023/07/23 11:08:12;;;;;;;12.68;10.07;;;;;;;;;;5019127;28;20096;-81
2023/07/23 11:11:00;;;;;;;13.13;9.70;;;;;;;;;;5019093;28;20076;-81
2023/07/23 11:13:27;;;;;;;12.03;9.80;;;;;;;;;;5036359;28;20029;-81
2023/07/23 11:15:52;;;;;;;12.45;9.15;;;;;;;;;;5037023;28;20091;-81
2023/07/23 11:18:21;;;;;;;13.55;8.90;;;;;;;;;;5018786;28;20434;-81
2023/07/23 11:20:47;;;;;;;13.60;9.88;;;;;;;;;;5036370;28;20026;-80
2023/07/23 11:23:13;;;;;;;13.30;9.52;;;;;;;;;;5036301;28;20110;-81
2023/07/23 11:25:39;;;;;;;15.15;8.70;;;;;;;;;;5036272;28;20026;-81
2023/07/23 11:28:04;;;;;;;11.05;8.95;;;;;;;;;;5036118;28;20360;-82
2023/07/23 11:30:32;;;;;;;12.63;9.27;;;;;;;;;;5036256;28;20461;-81
2023/07/23 11:33:04;;;;;;;13.30;9.43;;;;;;;;;;5018948;28;20025;-81
2023/07/23 11:35:30;;;;;;;11.13;8.57;;;;;;;;;;5019326;28;20033;-81
2023/07/23 11:38:00;;;;;;;12.05;8.40;;;;;;;;;;5034964;28;20507;-81
2023/07/23 11:40:25;;;;;;;11.68;8.60;;;;;;;;;;5035250;28;20040;-81
2023/07/23 11:42:52;;;;;;;9.85;8.30;;;;;;;;;;5018635;28;20123;-80
2023/07/23 11:45:17;;;;;;;9.50;8.05;;;;;;;;;;5018575;28;20035;-81
2023/07/23 11:47:53;;;;;;;10.63;8.15;;;;;;;;;;5018536;28;20030;-81
2023/07/23 11:50:19;;;;;;;12.27;8.73;;;;;;;;;;5018450;28;20037;-81
2023/07/23 11:52:48;;;;;;;10.20;8.27;;;;;;;;;;5035791;28;20029;-81
2023/07/23 11:55:23;;;;;;;11.30;8.55;;;;;;;;;;5034862;28;20130;-81
2023/07/23 11:57:55;;;;;;;11.23;8.30;;;;;;;;;;5035711;28;20087;-81
2023/07/23 12:00:28;;;;;;;12.57;9.27;;;;;;;;;;5034593;28;20472;-80
2023/07/23 12:02:54;;;;;;;10.18;8.00;;;;;;;;;;5017867;28;20384;-80
2023/07/23 12:05:19;;;;;;;10.15;8.13;;;;;;;;;;5035342;28;20046;-80
2023/07/23 12:07:45;;;;;;;10.45;8.10;;;;;;;;;;5035496;28;20057;-80
2023/07/23 12:10:14;;;;;;;10.48;8.32;;;;;;;;;;5017673;28;20052;-80
2023/07/23 12:12:43;;;;;;;11.82;8.45;;;;;;;;;;5018025;28;20034;-80
2023/07/23 12:15:09;;;;;;;8.27;6.87;;;;;;;;;;5034743;28;20060;-81
2023/07/23 12:17:34;;;;;;;9.18;6.45;;;;;;;;;;5035431;28;20091;-81
2023/07/23 12:20:02;;;;;;;10.82;7.30;;;;;;;;;;5035699;28;20116;-81
2023/07/23 12:22:30;;;;;;;9.02;6.95;;;;;;;;;;5017850;28;20129;-81
2023/07/23 12:24:55;;;;;;;8.45;7.13;;;;;;;;;;5034000;28;20362;-81
2023/07/23 12:27:21;;;;;;;10.23;7.57;;;;;;;;;;5035072;28;20044;-81
2023/07/23 12:29:48;;;;;;;11.65;7.57;;;;;;;;;;5017347;28;20022;-81
2023/07/23 12:32:19;;;;;;;9.35;6.53;;;;;;;;;;5035396;28;20052;-81
2023/07/23 12:34:46;;;;;;;8.00;5.82;;;;;;;;;;5019886;28;20087;-80
2023/07/23 12:37:11;;;;;;;8.65;6.15;;;;;;;;;;5003691;28;20449;-81
2023/07/23 12:39:37;;;;;;;7.57;5.47;;;;;;;;;;5040211;28;20025;-79
2023/07/23 12:42:03;;;;;;;7.18;5.65;;;;;;;;;;5039584;28;20025;-80
2023/07/23 12:44:29;;;;;;;11.75;5.72;;;;;;;;;;5044321;28;20041;-80
2023/07/23 12:46:55;;;;;;;10.48;6.65;;;;;;;;;;5036873;28;20045;-81
2023/07/23 12:49:20;;;;;;;8.65;6.22;;;;;;;;;;5017128;28;20029;-80
2023/07/23 12:51:46;;;;;;;7.47;6.18;;;;;;;;;;5017015;28;20030;-81
2023/07/23 12:54:11;;;;;;;10.18;6.85;;;;;;;;;;5034349;28;20034;-81
2023/07/23 12:56:37;;;;;;;8.80;6.82;;;;;;;;;;5016885;28;20413;-80
2023/07/23 12:59:02;;;;;;;12.32;7.25;;;;;;;;;;5016739;28;20084;-80
2023/07/23 13:01:28;;;;;;;10.63;7.50;;;;;;;;;;5016890;28;20444;-81
2023/07/23 13:03:53;;;;;;;10.90;7.35;;;;;;;;;;5034321;28;20030;-80
2023/07/23 13:06:19;;;;;;;9.68;7.20;;;;;;;;;;5016600;28;20056;-80
2023/07/23 13:08:44;;;;;;;9.85;7.82;;;;;;;;;;5016250;28;20038;-81
2023/07/23 13:11:10;;;;;;;11.43;7.45;;;;;;;;;;5000325;28;20032;-80
2023/07/23 13:13:37;;;;;;;8.93;7.43;;;;;;;;;;5034216;28;20053;-80
2023/07/23 13:16:03;;;;;;;11.82;7.20;;;;;;;;;;5034281;28;20039;-80
2023/07/23 13:18:28;;;;;;;10.27;6.75;;;;;;;;;;5034129;28;20029;-80
2023/07/23 13:20:53;;;;;;;9.48;6.47;;;;;;;;;;5034111;28;20033;-81
2023/07/23 13:23:19;;;;;;;9.30;6.60;;;;;;;;;;5034142;28;20065;-81
2023/07/23 13:25:44;;;;;;;10.98;7.47;;;;;;;;;;5034118;28;20067;-81
2023/07/23 13:28:10;;;;;;;11.38;7.20;;;;;;;;;;5034120;28;20036;-81
2023/07/23 13:30:35;;;;;;;8.80;6.65;;;;;;;;;;5034106;28;20033;-81
2023/07/23 13:33:01;;;;;;;11.15;7.03;;;;;;;;;;5033915;28;20121;-80
2023/07/23 13:35:26;;;;;;;9.18;6.70;;;;;;;;;;4999784;28;20464;-80
2023/07/23 13:37:52;;;;;;;8.90;6.75;;;;;;;;;;5016275;28;20076;-80
2023/07/23 13:40:18;;;;;;;9.48;7.43;;;;;;;;;;5016425;28;20053;-80
2023/07/23 13:42:43;;;;;;;11.40;8.10;;;;;;;;;;5016061;28;20510;-81
2023/07/23 13:45:09;;;;;;;13.02;8.02;;;;;;;;;;5016314;28;20087;-80
2023/07/23 13:47:34;;;;;;;11.02;7.07;;;;;;;;;;5033739;28;20468;-81
2023/07/23 13:50:00;;;;;;;11.68;8.05;;;;;;;;;;5034085;28;20388;-80
2023/07/23 13:52:25;;;;;;;10.40;7.80;;;;;;;;;;5033600;28;20034;-81
2023/07/23 13:54:51;;;;;;;11.13;7.88;;;;;;;;;;5034215;28;20032;-81
2023/07/23 13:57:16;;;;;;;10.57;8.07;;;;;;;;;;5016187;28;20099;-80
2023/07/23 13:59:41;;;;;;;13.02;7.38;;;;;;;;;;5037192;28;20044;-79
2023/07/23 14:02:07;;;;;;;14.50;7.47;;;;;;;;;;5041574;28;20034;-81
2023/07/23 14:04:32;;;;;;;10.20;8.57;;;;;;;;;;5024193;28;20029;-80
2023/07/23 14:06:58;;;;;;;14.43;9.13;;;;;;;;;;5035399;28;20060;-80
2023/07/23 14:09:24;;;;;;;14.30;8.48;;;;;;;;;;5022099;28;20048;-81
2023/07/23 14:11:49;;;;;;;12.80;8.57;;;;;;;;;;5033846;28;20026;-80
2023/07/23 14:14:14;;;;;;;11.55;8.63;;;;;;;;;;5015945;28;20032;-80
2023/07/23 14:16:40;;;;;;;13.88;9.60;;;;;;;;;;5033548;28;20029;-81
2023/07/23 14:19:05;;;;;;;12.35;9.27;;;;;;;;;;5016194;28;20508;-81
2023/07/23 14:21:31;;;;;;;13.82;9.35;;;;;;;;;;5033278;28;20113;-80
2023/07/23 14:23:56;;;;;;;11.20;8.48;;;;;;;;;;5033399;28;20021;-80
2023/07/23 14:26:22;;;;;;;12.30;8.60;;;;;;;;;;5033265;28;20030;-80
2023/07/23 14:28:48;;;;;;;12.13;8.85;;;;;;;;;;5033602;28;20044;-80